Time;durP1;ratioP1;P1;durP2;ratioP2;P2;SDS_P1;SDS_P2;PMS_P1;PMS_P2;Temp;Humidity;BMP_temperature;BMP_pressure;BME280_temperature;BME280_humidity;BME280_pressure;Samples;Min_cycle;Max_cycle;Signal;HPM_P1;HPM_P2
2022/06/13 00:00:56;;;;;;;114.25;31.73;;;;;;;16.90;81.28;96794.47;2079803;28;20197;-57
2022/06/13 00:01:57;;;;;;;104.13;26.52;;;;;;;16.78;80.37;96796.13;2078869;28;20220;-57
2022/06/13 00:03:00;;;;;;;103.93;26.95;;;;;;;16.62;80.95;96796.31;2080300;28;20236;-57
2022/06/13 00:04:07;;;;;;;104.00;23.83;;;;;;;16.72;79.54;96785.13;2078313;28;20204;-58
2022/06/13 00:05:09;;;;;;;104.05;26.05;;;;;;;16.88;79.47;96798.16;2080150;28;20251;-58
2022/06/13 00:06:11;;;;;;;107.30;25.50;;;;;;;16.77;79.65;96788.31;2079554;28;20200;-57
2022/06/13 00:07:13;;;;;;;105.45;28.30;;;;;;;16.75;79.78;96791.06;2079582;28;20225;-57
2022/06/13 00:08:14;;;;;;;108.60;34.58;;;;;;;16.67;80.19;96795.16;2079589;28;20205;-57
2022/06/13 00:09:16;;;;;;;119.43;48.03;;;;;;;16.53;81.87;96801.34;2079576;28;20228;-57
2022/06/13 00:10:17;;;;;;;110.47;34.92;;;;;;;15.96;83.15;96795.34;2079912;28;20204;-57
2022/06/13 00:11:23;;;;;;;125.22;50.53;;;;;;;15.64;84.99;96785.03;2080058;28;20200;-57
2022/06/13 00:12:25;;;;;;;129.18;59.97;;;;;;;15.74;84.78;96794.03;2078997;28;20228;-58
2022/06/13 00:13:27;;;;;;;135.50;62.42;;;;;;;15.74;84.78;96785.31;2080191;28;20208;-57
2022/06/13 00:14:28;;;;;;;125.93;53.58;;;;;;;15.76;84.03;96783.44;2078446;28;20193;-57
2022/06/13 00:15:30;;;;;;;125.38;57.28;;;;;;;15.90;83.36;96793.13;2080000;28;20197;-57
2022/06/13 00:16:32;;;;;;;127.68;54.15;;;;;;;15.93;84.30;96779.75;2079995;28;20208;-57
2022/06/13 00:17:34;;;;;;;126.88;50.05;;;;;;;15.98;83.83;96775.03;2078639;28;20224;-57
2022/06/13 00:18:36;;;;;;;119.22;40.08;;;;;;;16.09;83.12;96809.41;2078165;28;20580;-57
2022/06/13 00:19:37;;;;;;;129.95;59.60;;;;;;;16.20;83.26;96806.09;2080028;28;20193;-57
2022/06/13 00:20:39;;;;;;;128.13;60.15;;;;;;;16.11;83.11;96804.91;2079993;28;20204;-57
2022/06/13 00:21:40;;;;;;;140.07;72.80;;;;;;;16.28;81.76;96801.16;2079754;28;20529;-57
2022/06/13 00:22:42;;;;;;;140.70;78.72;;;;;;;16.38;81.45;96797.91;2079173;28;20205;-57
2022/06/13 00:23:44;;;;;;;139.40;73.10;;;;;;;15.78;83.15;96802.59;2079970;28;20189;-57
2022/06/13 00:24:45;;;;;;;128.60;62.10;;;;;;;15.86;82.77;96795.09;2080149;28;20596;-57
2022/06/13 00:25:47;;;;;;;137.13;64.15;;;;;;;15.88;82.68;96792.38;2079986;28;20209;-57
2022/06/13 00:26:48;;;;;;;144.82;77.70;;;;;;;15.87;82.99;96786.25;2079620;28;20263;-58
2022/06/13 00:27:50;;;;;;;133.77;60.63;;;;;;;15.75;83.83;96787.84;2080053;28;20197;-58
2022/06/13 00:28:52;;;;;;;128.13;54.60;;;;;;;15.66;83.91;96776.09;2080194;28;20552;-58
2022/06/13 00:29:54;;;;;;;126.32;45.25;;;;;;;15.56;84.36;96782.06;2080090;28;20566;-58
2022/06/13 00:30:55;;;;;;;130.55;54.75;;;;;;;15.69;83.94;96780.31;2080009;28;20663;-57
2022/06/13 00:31:57;;;;;;;124.88;48.67;;;;;;;15.78;83.89;96774.50;2079551;28;20232;-57
2022/06/13 00:32:58;;;;;;;131.77;59.50;;;;;;;16.02;82.73;96784.41;2079990;28;20189;-57
2022/06/13 00:34:00;;;;;;;134.55;59.28;;;;;;;16.09;81.30;96787.53;2080033;28;20201;-58
2022/06/13 00:35:02;;;;;;;129.45;56.83;;;;;;;16.14;80.96;96790.69;2080054;28;20578;-58
2022/06/13 00:36:03;;;;;;;128.60;60.28;;;;;;;16.05;81.77;96778.97;2079332;28;20215;-57
2022/06/13 00:37:05;;;;;;;123.68;47.90;;;;;;;16.17;81.83;96782.59;2078944;28;20227;-58
2022/06/13 00:38:07;;;;;;;129.38;62.38;;;;;;;16.24;81.21;96773.34;2080010;28;20207;-58
2022/06/13 00:39:08;;;;;;;126.10;59.55;;;;;;;16.09;81.42;96790.16;2079952;28;20389;-58
2022/06/13 00:40:11;;;;;;;119.45;43.10;;;;;;;16.16;81.22;96780.88;2080023;28;20205;-58
2022/06/13 00:41:18;;;;;;;126.72;56.70;;;;;;;16.27;81.22;96772.28;2080007;28;20204;-58
2022/06/13 00:42:21;;;;;;;123.72;49.95;;;;;;;16.11;83.10;96769.81;2078743;28;20220;-58
2022/06/13 00:43:23;;;;;;;123.50;54.63;;;;;;;15.77;82.89;96764.03;2078575;28;20204;-58
2022/06/13 00:44:27;;;;;;;147.70;71.90;;;;;;;15.91;84.81;96768.44;2080097;28;20626;-58
2022/06/13 00:45:34;;;;;;;126.20;52.25;;;;;;;15.99;82.08;96772.28;2079863;28;20224;-58
2022/06/13 00:46:36;;;;;;;127.78;60.53;;;;;;;16.15;81.97;96763.38;2078595;28;20197;-58
2022/06/13 00:47:40;;;;;;;147.38;86.13;;;;;;;16.11;84.06;96777.72;2079860;28;20216;-58
2022/06/13 00:48:42;;;;;;;158.32;105.10;;;;;;;16.21;82.66;96770.88;2078758;28;20290;-58
2022/06/13 00:49:45;;;;;;;120.78;43.45;;;;;;;16.26;82.21;96765.34;2079829;28;20219;-58
2022/06/13 00:50:55;;;;;;;109.20;31.48;;;;;;;16.23;80.26;96757.63;2078824;28;20707;-58
2022/06/13 00:52:17;;;;;;;111.65;31.27;;;;;;;16.33;80.31;96764.81;2079416;28;20224;-58
2022/06/13 00:53:23;;;;;;;114.13;31.98;;;;;;;16.39;80.91;96775.91;2079544;28;20232;-58
2022/06/13 00:54:24;;;;;;;106.30;20.35;;;;;;;16.36;79.44;96762.94;2079888;28;20219;-58
2022/06/13 00:55:53;;;;;;;111.78;31.33;;;;;;;16.44;79.93;96769.41;2079867;28;20574;-58
2022/06/13 00:56:55;;;;;;;105.78;17.48;;;;;;;16.29;79.74;96759.84;2079452;28;20201;-58
2022/06/13 00:58:00;;;;;;;112.00;27.73;;;;;;;16.07;81.32;96765.69;2079160;28;20189;-58
2022/06/13 00:59:09;;;;;;;116.22;35.38;;;;;;;16.22;82.51;96764.69;2079299;28;20193;-58
2022/06/13 01:00:13;;;;;;;128.73;63.67;;;;;;;16.39;83.31;96768.84;2079885;28;20196;-59
2022/06/13 01:01:16;;;;;;;149.05;102.35;;;;;;;16.35;83.30;96759.44;2079102;28;20204;-58
2022/06/13 01:02:18;;;;;;;123.82;58.28;;;;;;;16.55;83.04;96783.66;2079354;28;20251;-59
2022/06/13 01:03:21;;;;;;;141.23;79.45;;;;;;;16.43;82.80;96785.28;2079864;28;20683;-59
2022/06/13 01:04:22;;;;;;;124.93;56.83;;;;;;;16.40;83.64;96783.69;2079903;28;20202;-59
2022/06/13 01:05:26;;;;;;;111.80;36.22;;;;;;;16.33;83.75;96788.53;2079839;28;20201;-58
2022/06/13 01:06:32;;;;;;;124.63;54.67;;;;;;;16.24;84.12;96791.78;2078826;28;20201;-58
2022/06/13 01:07:35;;;;;;;111.43;35.70;;;;;;;16.29;83.33;96788.81;2078451;28;20224;-59
2022/06/13 01:08:38;;;;;;;127.05;53.67;;;;;;;16.28;84.39;96790.63;2078418;28;20204;-59
2022/06/13 01:11:20;;;;;;;118.55;38.83;;;;;;;16.26;84.01;96794.31;2054008;28;20259;-59
2022/06/13 01:12:21;;;;;;;116.47;41.55;;;;;;;16.18;83.74;96779.00;2053752;28;20660;-59
2022/06/13 01:13:47;;;;;;;118.32;34.58;;;;;;;16.10;83.71;96761.06;2058121;28;20202;-58
2022/06/13 01:15:18;;;;;;;108.60;30.98;;;;;;;16.30;83.14;96791.38;2032920;29;20716;-58
2022/06/13 01:16:37;;;;;;;110.65;34.28;;;;;;;16.14;84.00;96788.91;2045967;29;20212;-58
2022/06/13 01:17:57;;;;;;;116.47;29.38;;;;;;;15.86;84.25;96792.47;2079220;28;20217;-58
2022/06/13 01:19:47;;;;;;;120.88;49.33;;;;;;;16.05;85.22;96794.78;2079726;28;20197;-58
2022/06/13 01:21:11;;;;;;;120.28;49.78;;;;;;;16.19;85.47;96791.25;2078838;28;20232;-58
2022/06/13 01:22:43;;;;;;;110.28;24.50;;;;;;;16.04;84.34;96787.81;2078956;28;20224;-58
2022/06/13 01:23:59;;;;;;;110.00;28.27;;;;;;;15.99;84.53;96782.81;2078329;28;20193;-58
2022/06/13 01:25:25;;;;;;;109.63;25.23;;;;;;;16.10;83.80;96784.78;2079464;28;20203;-59
2022/06/13 01:26:32;;;;;;;106.38;24.10;;;;;;;16.14;84.84;96781.00;2079500;28;20208;-58
2022/06/13 01:28:00;;;;;;;109.20;31.60;;;;;;;16.14;83.33;96781.00;2078604;28;20224;-58
2022/06/13 01:29:39;;;;;;;112.90;37.47;;;;;;;15.87;83.46;96780.13;2079787;28;20193;-59
2022/06/13 01:30:53;;;;;;;115.93;37.10;;;;;;;15.61;83.89;96758.94;2079536;28;20193;-58
2022/06/13 01:32:22;;;;;;;107.55;27.58;;;;;;;15.73;84.87;96765.19;2078956;28;20223;-58
2022/06/13 01:33:33;;;;;;;107.45;25.90;;;;;;;15.66;85.60;96754.22;2079484;28;20511;-58
2022/06/13 01:35:02;;;;;;;127.10;49.20;;;;;;;15.79;85.89;96763.00;2078690;28;20220;-58
2022/06/13 01:36:10;;;;;;;142.38;66.60;;;;;;;15.87;86.08;96756.44;2079517;28;20684;-58
2022/06/13 01:37:30;;;;;;;117.63;32.13;;;;;;;15.83;84.98;96761.91;2079038;28;20278;-58
2022/06/13 01:38:45;;;;;;;124.30;50.08;;;;;;;15.78;85.33;96756.06;2078618;28;20671;-58
2022/06/13 01:40:35;;;;;;;147.85;80.13;;;;;;;15.87;85.52;96769.59;2079097;28;20572;-58
2022/06/13 01:41:54;;;;;;;126.20;39.83;;;;;;;15.94;84.63;96771.75;2065751;28;20197;-58
2022/06/13 01:43:02;;;;;;;121.57;40.03;;;;;;;15.99;84.75;96772.28;2079591;28;20559;-58
2022/06/13 01:44:15;;;;;;;115.55;34.30;;;;;;;15.99;84.17;96767.03;2079667;28;20194;-58
2022/06/13 01:45:27;;;;;;;117.18;44.38;;;;;;;16.04;84.09;96771.16;2079621;28;20246;-58
2022/06/13 01:46:37;;;;;;;123.63;43.60;;;;;;;16.00;83.70;96767.88;2079467;28;20212;-58
2022/06/13 01:47:55;;;;;;;122.13;47.38;;;;;;;15.85;84.50;96776.78;2079344;28;20225;-58
2022/06/13 01:49:15;;;;;;;113.68;34.60;;;;;;;15.93;84.09;96764.78;2079014;28;20235;-58
2022/06/13 01:50:25;;;;;;;135.52;66.22;;;;;;;15.52;84.79;96766.44;2077830;28;20201;-58
2022/06/13 01:51:45;;;;;;;137.20;61.13;;;;;;;15.54;84.36;96771.63;2070680;28;20273;-58
2022/06/13 01:53:12;;;;;;;116.60;40.08;;;;;;;15.53;84.00;96751.50;2078129;28;20241;-58
2022/06/13 01:54:29;;;;;;;128.00;55.53;;;;;;;15.60;84.19;96773.84;2079422;28;20196;-58
2022/06/13 01:55:37;;;;;;;113.03;36.35;;;;;;;15.67;84.95;96776.97;2079573;28;20207;-58
2022/06/13 01:56:45;;;;;;;116.63;33.00;;;;;;;15.59;83.72;96774.81;2078995;28;20197;-58
2022/06/13 01:57:53;;;;;;;118.78;41.00;;;;;;;15.62;85.16;96779.88;2078987;28;20555;-58
2022/06/13 01:59:07;;;;;;;110.60;24.90;;;;;;;15.71;84.85;96783.72;2079190;28;20667;-58
2022/06/13 02:00:32;;;;;;;110.97;27.27;;;;;;;15.72;84.82;96788.03;2079349;28;20205;-58
2022/06/13 02:01:47;;;;;;;116.85;37.20;;;;;;;15.85;86.22;96782.88;2066237;28;20280;-58
2022/06/13 02:02:58;;;;;;;112.90;31.65;;;;;;;15.90;84.61;96779.97;2068176;28;20227;-58
2022/06/13 02:04:15;;;;;;;109.88;29.52;;;;;;;15.83;85.05;96784.75;2066958;28;20217;-58
2022/06/13 02:05:31;;;;;;;115.55;35.63;;;;;;;15.87;86.75;96785.41;2065738;28;20201;-58
2022/06/13 02:06:40;;;;;;;117.95;35.67;;;;;;;15.66;85.51;96770.00;2068795;28;20205;-58
2022/06/13 02:07:50;;;;;;;116.60;33.70;;;;;;;15.89;85.63;96789.63;2064167;28;20225;-58
2022/06/13 02:09:18;;;;;;;123.15;49.22;;;;;;;15.83;82.96;96790.00;2067510;28;20230;-58
2022/06/13 02:10:25;;;;;;;132.02;65.05;;;;;;;15.70;82.75;96765.41;2067328;28;20653;-58
2022/06/13 02:11:43;;;;;;;118.72;39.55;;;;;;;15.87;84.60;96791.53;2069384;28;20209;-58
2022/06/13 02:12:50;;;;;;;112.35;31.00;;;;;;;15.93;83.60;96782.38;2059932;28;20231;-58
2022/06/13 02:13:59;;;;;;;119.00;44.60;;;;;;;15.92;82.73;96784.19;2062582;28;20199;-58
2022/06/13 02:15:26;;;;;;;121.82;46.30;;;;;;;15.82;82.06;96786.53;2069091;28;20747;-58
2022/06/13 02:16:36;;;;;;;129.23;57.53;;;;;;;15.56;82.86;96756.56;2069440;28;20205;-57
2022/06/13 02:17:46;;;;;;;126.65;59.85;;;;;;;15.79;82.66;96778.78;2064840;28;20237;-58
2022/06/13 02:19:02;;;;;;;140.25;75.53;;;;;;;15.82;82.56;96786.53;2069477;28;20434;-58
2022/06/13 02:20:13;;;;;;;120.47;35.72;;;;;;;15.62;84.64;96782.50;2070816;28;20201;-58
2022/06/13 02:21:16;;;;;;;134.68;62.55;;;;;;;15.66;83.13;96773.47;2068307;28;20212;-58
2022/06/13 02:22:25;;;;;;;140.95;70.22;;;;;;;15.79;82.26;96781.44;2066685;28;20760;-58
2022/06/13 02:23:31;;;;;;;133.15;66.15;;;;;;;15.80;80.77;96791.03;2070044;28;20209;-58
2022/06/13 02:24:40;;;;;;;143.05;75.25;;;;;;;15.82;81.62;96794.44;2065608;28;20190;-58
2022/06/13 02:25:50;;;;;;;136.45;72.47;;;;;;;15.77;80.61;96782.47;2066649;28;20208;-58
2022/06/13 02:26:55;;;;;;;135.90;65.57;;;;;;;15.72;81.31;96790.69;2063039;28;20208;-58
2022/06/13 02:28:09;;;;;;;129.77;62.10;;;;;;;15.66;80.98;96775.28;2063517;28;20561;-58
2022/06/13 02:29:32;;;;;;;123.22;51.28;;;;;;;15.67;80.46;96790.13;2065414;28;20680;-58
2022/06/13 02:30:45;;;;;;;154.23;87.68;;;;;;;15.55;82.51;96765.41;2069711;28;20194;-58
2022/06/13 02:32:11;;;;;;;122.03;48.17;;;;;;;15.49;81.29;96779.81;2068365;28;20646;-58
2022/06/13 02:33:27;;;;;;;146.48;81.35;;;;;;;15.52;82.55;96773.50;2073445;28;20201;-58
2022/06/13 02:34:39;;;;;;;140.10;77.93;;;;;;;15.59;83.00;96782.72;2080172;28;20248;-58
2022/06/13 02:36:11;;;;;;;125.47;52.70;;;;;;;15.45;82.16;96777.44;2080783;28;20205;-58
2022/06/13 02:37:18;;;;;;;122.63;49.75;;;;;;;15.52;81.72;96776.97;2078417;28;20279;-58
2022/06/13 02:38:29;;;;;;;135.90;70.60;;;;;;;15.40;82.43;96780.38;2081004;28;20193;-58
2022/06/13 02:39:49;;;;;;;149.13;84.18;;;;;;;15.40;82.66;96777.75;2080854;28;20637;-58
2022/06/13 02:40:58;;;;;;;140.88;66.80;;;;;;;15.45;81.89;96769.56;2078959;28;20204;-58
2022/06/13 02:42:23;;;;;;;120.28;45.35;;;;;;;15.45;81.06;96778.31;2079760;28;20217;-58
2022/06/13 02:43:45;;;;;;;119.75;43.67;;;;;;;15.47;80.59;96784.31;2080500;28;20688;-58
2022/06/13 02:44:51;;;;;;;117.93;39.15;;;;;;;15.38;80.63;96794.56;2080377;28;20237;-58
2022/06/13 02:45:55;;;;;;;130.85;59.05;;;;;;;15.28;82.29;96791.66;2081091;28;20204;-59
2022/06/13 02:47:19;;;;;;;129.68;64.35;;;;;;;15.33;81.80;96789.59;2080196;28;20224;-58
2022/06/13 02:48:48;;;;;;;147.40;77.82;;;;;;;15.19;82.96;96793.91;2080851;28;20660;-58
2022/06/13 02:49:57;;;;;;;120.80;47.47;;;;;;;15.04;82.18;96791.38;2080739;28;20228;-58
2022/06/13 02:51:17;;;;;;;138.73;67.15;;;;;;;15.13;82.69;96794.25;2080625;28;20815;-58
2022/06/13 02:52:27;;;;;;;124.38;45.80;;;;;;;15.03;81.41;96795.75;2075032;28;20240;-58
2022/06/13 02:53:36;;;;;;;122.53;48.15;;;;;;;15.06;81.34;96792.09;2074561;28;20205;-58
2022/06/13 02:54:46;;;;;;;124.18;47.45;;;;;;;15.02;81.52;96791.47;2080872;28;20193;-58
2022/06/13 02:55:59;;;;;;;112.07;33.13;;;;;;;14.96;80.32;96797.09;2080508;28;20197;-58
2022/06/13 02:57:24;;;;;;;129.27;48.28;;;;;;;14.26;79.82;96710.94;2078791;28;20228;-58
2022/06/13 02:58:32;;;;;;;114.70;31.15;;;;;;;14.80;78.54;96790.09;2079366;28;20200;-59
2022/06/13 02:59:42;;;;;;;120.53;37.88;;;;;;;14.90;79.62;96798.28;2080290;28;20201;-59
2022/06/13 03:01:02;;;;;;;124.85;44.40;;;;;;;14.81;79.10;96790.97;2079796;28;20528;-58
2022/06/13 03:02:10;;;;;;;119.85;33.97;;;;;;;14.61;80.06;96787.66;2079123;28;20228;-58
2022/06/13 03:03:34;;;;;;;131.80;41.80;;;;;;;14.75;78.74;96786.06;2080556;28;20556;-58
2022/06/13 03:04:40;;;;;;;113.68;32.72;;;;;;;14.54;78.25;96760.91;2078698;28;20560;-60
2022/06/13 03:05:53;;;;;;;125.95;37.78;;;;;;;14.75;77.01;96799.19;2080834;28;20262;-59
2022/06/13 03:07:13;;;;;;;137.95;50.58;;;;;;;14.72;77.47;96791.50;2080403;28;20280;-58
2022/06/13 03:08:26;;;;;;;126.50;38.22;;;;;;;14.56;78.79;96794.97;2080265;28;20215;-59
2022/06/13 03:09:51;;;;;;;118.97;35.15;;;;;;;14.41;78.94;96791.50;2080674;28;20205;-59
2022/06/13 03:10:55;;;;;;;122.38;33.72;;;;;;;14.44;78.61;96799.19;2080687;28;20497;-58
2022/06/13 03:12:04;;;;;;;119.95;38.33;;;;;;;14.43;79.50;96791.41;2080139;28;20683;-58
2022/06/13 03:13:11;;;;;;;118.35;31.25;;;;;;;14.48;78.25;96797.22;2080261;28;20200;-58
2022/06/13 03:14:27;;;;;;;118.00;39.15;;;;;;;14.39;78.56;96776.75;2080652;28;20194;-59
2022/06/13 03:16:02;;;;;;;116.43;32.20;;;;;;;14.26;78.93;96794.97;2080082;28;20661;-58
2022/06/13 03:17:37;;;;;;;111.68;28.15;;;;;;;14.35;78.14;96797.94;2080148;28;20217;-59
2022/06/13 03:18:46;;;;;;;117.30;31.02;;;;;;;14.32;77.80;96800.75;2070955;28;20210;-59
2022/06/13 03:19:51;;;;;;;136.82;45.67;;;;;;;14.28;76.46;96798.38;2080768;28;20328;-58
2022/06/13 03:20:57;;;;;;;124.55;42.55;;;;;;;14.16;76.11;96769.25;2078828;28;20623;-58
2022/06/13 03:22:08;;;;;;;129.35;43.83;;;;;;;14.16;76.46;96790.25;2080264;28;20274;-59
2022/06/13 03:23:25;;;;;;;121.88;41.05;;;;;;;14.13;76.88;96789.56;2080677;28;20220;-58
2022/06/13 03:24:55;;;;;;;128.70;44.47;;;;;;;14.10;77.00;96795.84;2080579;28;20239;-58
2022/06/13 03:26:12;;;;;;;114.70;20.40;;;;;;;14.04;77.05;96797.06;2075873;28;20197;-58
2022/06/13 03:27:26;;;;;;;113.68;20.23;;;;;;;14.00;78.10;96786.81;2079642;28;20715;-58
2022/06/13 03:28:33;;;;;;;114.28;22.67;;;;;;;13.86;77.28;96779.69;2079692;28;20201;-58
2022/06/13 03:29:45;;;;;;;120.97;24.48;;;;;;;13.79;77.68;96765.22;2075981;28;20641;-60
2022/06/13 03:30:50;;;;;;;115.25;27.30;;;;;;;14.04;76.90;96796.19;2079143;28;20200;-58
2022/06/13 03:32:09;;;;;;;113.10;22.92;;;;;;;13.79;77.55;96794.94;2080316;28;20200;-59
2022/06/13 03:33:40;;;;;;;114.10;23.70;;;;;;;13.74;77.76;96788.25;2079306;28;20201;-58
2022/06/13 03:34:48;;;;;;;112.00;26.17;;;;;;;13.55;77.03;96803.22;2080024;28;20201;-58
2022/06/13 03:35:51;;;;;;;116.32;22.17;;;;;;;13.66;77.32;96793.91;2080230;28;20189;-58
2022/06/13 03:37:00;;;;;;;119.18;26.80;;;;;;;13.49;77.73;96803.56;2079839;28;20204;-58
2022/06/13 03:38:05;;;;;;;117.00;24.48;;;;;;;13.67;77.56;96803.47;2080218;28;20208;-58
2022/06/13 03:39:30;;;;;;;112.38;21.15;;;;;;;13.75;76.17;96795.19;2080676;28;20589;-58
2022/06/13 03:40:36;;;;;;;110.20;16.08;;;;;;;13.77;76.64;96794.19;2078963;28;20200;-58
2022/06/13 03:41:44;;;;;;;117.60;17.90;;;;;;;13.79;76.61;96802.81;2079790;28;20193;-58
2022/06/13 03:43:01;;;;;;;115.32;28.15;;;;;;;13.86;76.03;96800.69;2080497;28;20328;-58
2022/06/13 03:44:14;;;;;;;116.35;20.25;;;;;;;13.99;76.03;96806.97;2079108;28;20231;-59
2022/06/13 03:45:23;;;;;;;120.82;22.77;;;;;;;13.87;76.01;96800.59;2080630;28;20205;-58
2022/06/13 03:46:46;;;;;;;115.82;25.08;;;;;;;13.62;76.36;96813.38;2079151;28;20212;-59
2022/06/13 03:48:05;;;;;;;124.15;35.72;;;;;;;13.77;75.38;96804.66;2080279;28;20683;-58
2022/06/13 03:49:24;;;;;;;121.80;33.67;;;;;;;13.66;75.53;96799.16;2079988;28;20196;-58
2022/06/13 03:50:29;;;;;;;114.25;26.63;;;;;;;13.63;76.67;96799.34;2080372;28;20200;-58
2022/06/13 03:51:40;;;;;;;113.40;18.70;;;;;;;13.72;75.85;96801.47;2080580;28;20193;-58
2022/06/13 03:52:47;;;;;;;124.35;27.40;;;;;;;13.77;76.30;96803.84;2079986;28;20240;-58
2022/06/13 03:53:56;;;;;;;116.65;24.20;;;;;;;13.84;75.45;96795.53;2079007;28;20225;-58
2022/06/13 03:55:06;;;;;;;131.35;45.17;;;;;;;13.85;75.19;96796.38;2071648;28;20672;-58
2022/06/13 03:56:23;;;;;;;126.60;25.75;;;;;;;13.80;75.24;96791.41;2072295;28;20637;-58
2022/06/13 03:57:30;;;;;;;117.30;24.05;;;;;;;13.70;76.33;96798.91;2079674;28;20714;-58
2022/06/13 03:58:40;;;;;;;137.60;51.22;;;;;;;13.65;75.62;96794.84;2078939;28;20205;-58
2022/06/13 04:00:11;;;;;;;116.00;25.10;;;;;;;13.71;75.88;96799.75;2067226;28;20198;-59
2022/06/13 04:01:21;;;;;;;127.50;47.33;;;;;;;13.67;75.13;96787.75;2070937;28;20256;-58
2022/06/13 04:02:28;;;;;;;127.22;32.85;;;;;;;13.71;75.43;96789.25;2079260;28;20253;-58
2022/06/13 04:03:30;;;;;;;118.40;29.63;;;;;;;13.78;75.52;96792.41;2079129;28;20716;-58
2022/06/13 04:04:37;;;;;;;136.73;55.30;;;;;;;13.73;74.79;96789.19;2080329;28;20541;-58
2022/06/13 04:05:57;;;;;;;119.20;31.45;;;;;;;13.71;75.60;96791.88;2080215;28;20224;-59
2022/06/13 04:07:01;;;;;;;119.40;30.48;;;;;;;13.64;75.67;96786.13;2079774;28;20231;-58
2022/06/13 04:08:04;;;;;;;130.30;36.42;;;;;;;13.72;75.65;96783.09;2080379;28;20570;-58
2022/06/13 04:09:16;;;;;;;132.93;53.35;;;;;;;13.75;74.75;96790.81;2080118;28;20208;-58
2022/06/13 04:10:21;;;;;;;127.25;40.55;;;;;;;13.54;74.69;96764.78;2078815;28;20201;-58
2022/06/13 04:11:45;;;;;;;114.10;21.83;;;;;;;13.62;74.99;96784.53;2080234;28;20300;-58
2022/06/13 04:13:15;;;;;;;122.88;30.05;;;;;;;13.63;75.78;96804.59;2079421;28;20228;-58
2022/06/13 04:14:44;;;;;;;122.88;28.75;;;;;;;13.63;75.46;96808.06;2078424;28;20193;-58
2022/06/13 04:16:04;;;;;;;144.57;38.42;;;;;;;13.79;74.24;96812.47;2080270;28;20199;-58
2022/06/13 04:17:27;;;;;;;121.47;31.90;;;;;;;13.64;75.52;96806.28;2079087;28;20298;-58
2022/06/13 04:18:43;;;;;;;137.13;33.08;;;;;;;13.77;74.93;96814.34;2078985;28;20213;-58
2022/06/13 04:20:13;;;;;;;130.35;40.10;;;;;;;13.76;74.67;96805.59;2080030;28;20635;-58
2022/06/13 04:21:34;;;;;;;129.05;39.35;;;;;;;13.75;74.86;96813.56;2046440;28;20208;-58
2022/06/13 04:22:46;;;;;;;125.88;32.30;;;;;;;13.77;73.46;96809.91;2061277;28;20239;-58
2022/06/13 04:23:58;;;;;;;141.55;50.60;;;;;;;13.94;73.84;96816.88;2073036;28;20217;-58
2022/06/13 04:25:14;;;;;;;130.77;42.95;;;;;;;14.03;73.42;96812.91;2080089;28;20190;-59
2022/06/13 04:26:30;;;;;;;134.90;51.63;;;;;;;14.07;72.99;96818.81;2079780;28;20618;-58
2022/06/13 04:27:44;;;;;;;126.18;39.97;;;;;;;13.95;74.27;96818.56;2079439;28;20220;-58
2022/06/13 04:28:53;;;;;;;135.90;49.30;;;;;;;14.07;73.46;96817.03;2079782;28;20399;-59
2022/06/13 04:29:54;;;;;;;129.15;51.38;;;;;;;14.06;72.63;96820.59;2080086;28;20644;-58
2022/06/13 04:30:59;;;;;;;139.35;55.72;;;;;;;13.88;72.88;96817.22;2071278;28;20205;-58
2022/06/13 04:32:05;;;;;;;137.20;53.65;;;;;;;13.97;73.55;96816.69;2071402;28;20657;-59
2022/06/13 04:33:17;;;;;;;128.57;47.85;;;;;;;13.91;73.25;96827.53;2078074;28;20774;-58
2022/06/13 04:34:27;;;;;;;138.18;51.72;;;;;;;14.05;73.31;96826.78;2079944;28;20223;-58
2022/06/13 04:35:31;;;;;;;129.85;47.78;;;;;;;13.97;73.49;96815.88;2078902;28;20577;-59
2022/06/13 04:36:33;;;;;;;130.88;43.60;;;;;;;14.16;73.38;96831.44;2080021;28;20220;-59
2022/06/13 04:37:37;;;;;;;123.90;41.70;;;;;;;14.14;73.07;96822.78;2078813;28;20236;-59
2022/06/13 04:38:47;;;;;;;127.57;44.47;;;;;;;14.16;72.19;96824.41;2079940;28;20211;-59
2022/06/13 04:39:52;;;;;;;140.40;58.13;;;;;;;14.14;72.04;96828.03;2079732;28;20200;-59
2022/06/13 04:40:58;;;;;;;133.45;50.60;;;;;;;13.91;72.49;96826.69;2079011;28;20204;-59
2022/06/13 04:42:02;;;;;;;135.38;47.10;;;;;;;13.81;73.82;96813.22;2079002;28;20217;-59
2022/06/13 04:43:08;;;;;;;136.07;52.05;;;;;;;13.93;73.26;96827.44;2080042;28;20529;-58
2022/06/13 04:44:17;;;;;;;150.50;59.00;;;;;;;13.87;72.88;96812.91;2078314;28;20208;-59
2022/06/13 04:45:28;;;;;;;141.93;57.72;;;;;;;13.98;72.49;96825.41;2079381;28;20197;-59
2022/06/13 04:46:33;;;;;;;136.00;55.97;;;;;;;14.09;72.61;96830.91;2079365;28;20555;-59
2022/06/13 04:47:37;;;;;;;138.90;53.22;;;;;;;14.08;73.11;96829.25;2078387;28;20246;-58
2022/06/13 04:48:40;;;;;;;127.93;46.08;;;;;;;14.04;72.64;96833.81;2079865;28;20196;-58
2022/06/13 04:49:55;;;;;;;139.75;54.05;;;;;;;13.97;72.03;96826.38;2079312;28;20197;-59
2022/06/13 04:51:02;;;;;;;141.77;55.22;;;;;;;14.17;72.55;96835.72;2079161;28;20223;-59
2022/06/13 04:52:10;;;;;;;133.43;49.75;;;;;;;14.28;71.48;96829.88;2079330;28;20533;-59
2022/06/13 04:53:20;;;;;;;136.30;61.83;;;;;;;14.21;71.59;96824.16;2079827;28;20227;-59
2022/06/13 04:54:34;;;;;;;141.40;62.38;;;;;;;14.36;71.78;96839.03;2079908;28;20284;-59
2022/06/13 04:55:44;;;;;;;141.07;57.70;;;;;;;14.10;72.54;96843.13;2079723;28;20208;-59
2022/06/13 04:56:46;;;;;;;138.25;59.03;;;;;;;14.29;72.46;96840.31;2078499;28;20201;-59
2022/06/13 04:57:48;;;;;;;129.40;46.80;;;;;;;14.23;71.87;96842.44;2079762;28;20282;-60
2022/06/13 04:58:52;;;;;;;136.60;51.70;;;;;;;14.12;71.59;96812.38;2078805;28;20204;-60
2022/06/13 05:00:02;;;;;;;128.93;50.22;;;;;;;14.40;72.25;96852.84;2079098;28;20193;-60
2022/06/13 05:01:26;;;;;;;133.80;49.40;;;;;;;14.28;71.60;96850.91;2079870;28;20641;-60
2022/06/13 05:02:48;;;;;;;142.90;58.10;;;;;;;14.31;71.51;96856.84;2064099;28;20224;-60
2022/06/13 05:03:52;;;;;;;136.57;53.85;;;;;;;14.34;71.33;96851.38;2079278;28;20231;-60
2022/06/13 05:04:54;;;;;;;138.25;53.28;;;;;;;14.41;71.62;96851.03;2079035;28;20873;-60
2022/06/13 05:06:01;;;;;;;133.95;46.53;;;;;;;14.45;70.58;96852.56;2079723;28;20559;-60
2022/06/13 05:07:12;;;;;;;134.23;54.00;;;;;;;14.42;70.47;96832.56;2074666;28;20217;-60
2022/06/13 05:08:23;;;;;;;135.32;53.55;;;;;;;14.62;70.41;96865.59;2071157;28;20193;-60
2022/06/13 05:09:26;;;;;;;126.43;43.60;;;;;;;14.57;69.09;96862.38;2070402;28;20202;-60
2022/06/13 05:10:31;;;;;;;130.13;38.80;;;;;;;14.29;69.55;96856.06;2071576;28;20640;-60
2022/06/13 05:11:56;;;;;;;133.75;52.50;;;;;;;14.36;70.00;96861.84;2071687;28;20232;-60
2022/06/13 05:12:58;;;;;;;147.20;66.72;;;;;;;14.41;70.28;96865.06;2070513;28;20205;-60
2022/06/13 05:14:28;;;;;;;141.32;58.03;;;;;;;14.29;69.80;96855.22;2070886;28;20209;-60
2022/06/13 05:15:32;;;;;;;144.35;57.10;;;;;;;14.20;69.77;96852.16;2071288;28;20579;-60
2022/06/13 05:16:46;;;;;;;136.10;54.13;;;;;;;14.32;69.31;96860.28;2071349;28;20640;-60
2022/06/13 05:18:03;;;;;;;133.88;50.17;;;;;;;14.39;70.00;96866.06;2078110;28;20253;-60
2022/06/13 05:19:28;;;;;;;141.80;69.25;;;;;;;14.59;70.29;96871.03;2079339;28;20208;-60
2022/06/13 05:20:44;;;;;;;136.10;52.10;;;;;;;14.73;69.30;96872.91;2078323;28;20278;-60
2022/06/13 05:21:54;;;;;;;143.48;52.08;;;;;;;14.59;69.06;96876.28;2078674;28;20204;-60
2022/06/13 05:23:02;;;;;;;144.88;67.32;;;;;;;14.51;69.61;96889.00;2079875;28;20214;-60
2022/06/13 05:24:29;;;;;;;138.60;59.22;;;;;;;14.56;69.53;96881.69;2079950;28;20652;-60
2022/06/13 05:25:43;;;;;;;149.95;64.55;;;;;;;14.57;69.63;96887.81;2079317;28;20212;-61
2022/06/13 05:26:45;;;;;;;138.60;55.72;;;;;;;14.64;68.71;96873.38;2069045;28;20205;-60